Terminal Aerodrome Forecast
Issued by NWS Charleston, WV

Current Version | Previous Version | Graphics & Text | Print | Product List | Glossary On
Versions: 1 2 3 4 5 6 7 8 9 10 11 12 13 14 15 16 17 18 19 20 21 22 23 24 25
000
FTUS41 KRLX 301400 AAA
TAFEKN
TAF AMD
KEKN 301401Z 3014/3112 29005KT P6SM SCT019 OVC035
     FM301800 31005KT P6SM SCT040
     FM302000 31005KT P6SM BKN040
     FM310800 00000KT 5SM BR BKN040=

USA.gov is the U.S. government's official web portal to all federal, state and local government web resources and services.